createdAt,value
2023-03-22T00:01:31.131Z,8.61
2023-03-22T00:03:59.783Z,8.56
2023-03-22T00:06:28.856Z,8.56
2023-03-22T00:08:56.715Z,8.59
2023-03-22T00:11:25.806Z,8.66
2023-03-22T00:13:54.901Z,8.72
2023-03-22T00:16:23.388Z,8.74
2023-03-22T00:18:51.298Z,8.68
2023-03-22T00:21:19.445Z,8.74
2023-03-22T00:23:48.449Z,8.52
2023-03-22T00:26:16.451Z,8.76
2023-03-22T00:28:44.289Z,8.75
2023-03-22T00:31:12.358Z,8.74
2023-03-22T00:33:40.701Z,8.80
2023-03-22T00:36:10.814Z,8.71
2023-03-22T00:38:43.868Z,8.61
2023-03-22T00:41:16.126Z,8.71
2023-03-22T00:43:44.719Z,8.66
2023-03-22T00:46:13.541Z,8.63
2023-03-22T00:48:41.179Z,8.64
2023-03-22T00:51:09.960Z,8.67
2023-03-22T00:53:37.502Z,8.65
2023-03-22T00:56:06.448Z,8.70
2023-03-22T00:58:35.672Z,8.72
2023-03-22T01:01:03.452Z,8.71
2023-03-22T01:03:31.210Z,8.74
2023-03-22T01:05:59.288Z,8.82
2023-03-22T01:08:33.628Z,8.80
2023-03-22T01:11:01.993Z,8.89
2023-03-22T01:13:29.985Z,8.77
2023-03-22T01:15:59.083Z,8.84
2023-03-22T01:18:26.731Z,8.87
2023-03-22T01:20:54.588Z,8.85
2023-03-22T01:23:22.421Z,8.85
2023-03-22T01:25:50.158Z,8.88
2023-03-22T01:28:17.823Z,8.92
2023-03-22T01:30:45.508Z,8.88
2023-03-22T01:33:14.630Z,8.88
2023-03-22T01:35:42.360Z,8.90
2023-03-22T01:38:10.026Z,8.92
2023-03-22T01:40:38.069Z,8.88
2023-03-22T01:43:11.505Z,8.70
2023-03-22T01:45:42.459Z,8.92
2023-03-22T01:48:16.896Z,8.91
2023-03-22T01:50:50.812Z,8.90
2023-03-22T01:53:23.697Z,8.93
2023-03-22T01:55:53.089Z,8.89
2023-03-22T01:58:21.301Z,8.89
2023-03-22T02:00:51.201Z,8.91
2023-03-22T02:03:26.913Z,8.88
2023-03-22T02:05:55.353Z,8.82
2023-03-22T02:08:23.206Z,8.85
2023-03-22T02:10:50.959Z,8.84
2023-03-22T02:13:34.913Z,8.81
2023-03-22T02:16:13.686Z,8.79
2023-03-22T02:18:58.785Z,8.82
2023-03-22T02:21:54.238Z,8.82
2023-03-22T02:24:55.586Z,8.81
2023-03-22T02:27:52.051Z,8.69
2023-03-22T02:30:41.307Z,8.85
2023-03-22T02:33:27.535Z,8.83
2023-03-22T02:36:30.851Z,8.89
2023-03-22T02:39:11.669Z,8.92
2023-03-22T02:41:52.278Z,8.91
2023-03-22T02:44:27.326Z,8.90
2023-03-22T02:47:02.990Z,8.96
2023-03-22T02:49:37.380Z,8.95
2023-03-22T02:52:12.586Z,9.00
2023-03-22T02:54:46.842Z,9.04
2023-03-22T02:57:19.537Z,9.06
2023-03-22T02:59:48.151Z,9.07
2023-03-22T03:02:18.488Z,9.08
2023-03-22T03:04:49.904Z,9.09
2023-03-22T03:07:21.762Z,9.06
2023-03-22T03:09:51.371Z,8.87
2023-03-22T03:12:21.922Z,8.93
2023-03-22T03:14:49.511Z,9.10
2023-03-22T03:17:28.895Z,9.01
2023-03-22T03:20:21.911Z,8.93
2023-03-22T03:23:00.127Z,9.07
2023-03-22T03:25:43.209Z,9.07
2023-03-22T03:28:16.050Z,9.13
2023-03-22T03:30:50.500Z,9.13
2023-03-22T03:33:21.529Z,9.11
2023-03-22T03:35:54.559Z,9.11
2023-03-22T03:38:26.902Z,9.12
2023-03-22T03:41:00.320Z,9.12
2023-03-22T03:43:28.014Z,9.19
2023-03-22T03:45:56.682Z,9.14
2023-03-22T03:48:27.597Z,9.24
2023-03-22T03:50:58.389Z,9.24
2023-03-22T03:53:26.268Z,9.21
2023-03-22T03:55:53.975Z,9.21
2023-03-22T03:58:23.365Z,9.27
2023-03-22T04:00:51.716Z,9.30
2023-03-22T04:03:19.383Z,9.24
2023-03-22T04:05:47.054Z,9.20
2023-03-22T04:08:15.029Z,9.23
2023-03-22T04:10:42.816Z,9.23
2023-03-22T04:13:10.529Z,9.23
2023-03-22T04:15:39.565Z,9.27
2023-03-22T04:18:09.628Z,9.29
2023-03-22T04:20:39.156Z,9.24
2023-03-22T04:23:07.014Z,9.24
2023-03-22T04:25:37.842Z,9.21
2023-03-22T04:28:06.026Z,9.21
2023-03-22T04:30:36.367Z,9.27
2023-03-22T04:33:07.186Z,9.22
2023-03-22T04:35:35.607Z,9.28
2023-03-22T04:38:03.308Z,9.24
2023-03-22T04:40:35.203Z,9.31
2023-03-22T04:43:04.218Z,9.28
2023-03-22T04:45:32.371Z,9.35
2023-03-22T04:48:00.917Z,9.33
2023-03-22T04:50:30.009Z,9.41
2023-03-22T04:52:58.396Z,9.31
2023-03-22T04:55:27.621Z,9.31
2023-03-22T04:57:56.003Z,9.31
2023-03-22T05:00:23.939Z,9.33
2023-03-22T05:02:51.634Z,9.37
2023-03-22T05:05:19.322Z,9.34
2023-03-22T05:07:48.346Z,9.32
2023-03-22T05:10:16.082Z,9.34
2023-03-22T05:12:43.819Z,9.30
2023-03-22T05:15:11.925Z,9.28
2023-03-22T05:17:39.589Z,9.26
2023-03-22T05:20:10.121Z,9.21
2023-03-22T05:22:40.588Z,9.24
2023-03-22T05:25:11.459Z,9.25
2023-03-22T05:27:39.267Z,9.26
2023-03-22T05:30:08.375Z,9.27
2023-03-22T05:32:37.583Z,9.33
2023-03-22T05:35:06.942Z,9.26
2023-03-22T05:37:34.745Z,9.33
2023-03-22T05:40:02.500Z,9.33
2023-03-22T05:42:31.513Z,9.33
2023-03-22T05:44:59.302Z,9.41
2023-03-22T05:47:26.984Z,9.40
2023-03-22T05:49:54.677Z,9.35
2023-03-22T05:52:22.350Z,9.37
2023-03-22T05:54:50.106Z,9.40
2023-03-22T05:57:18.470Z,9.39
2023-03-22T05:59:47.506Z,9.34
2023-03-22T06:02:15.619Z,9.38
2023-03-22T06:04:43.386Z,9.34
2023-03-22T06:07:11.610Z,9.33
2023-03-22T06:09:39.422Z,9.35
2023-03-22T06:12:07.708Z,9.33
2023-03-22T06:14:35.662Z,9.38
2023-03-22T06:17:04.739Z,9.48
2023-03-22T06:19:32.486Z,9.48
2023-03-22T06:22:00.460Z,9.54
2023-03-22T06:24:28.242Z,9.56
2023-03-22T06:26:55.960Z,9.68
2023-03-22T06:29:23.692Z,9.75
2023-03-22T06:31:51.362Z,9.81
2023-03-22T06:34:20.621Z,9.66
2023-03-22T06:36:48.562Z,9.62
2023-03-22T06:39:16.287Z,9.74
2023-03-22T06:41:43.957Z,9.77
2023-03-22T06:44:11.661Z,9.78
2023-03-22T06:46:39.432Z,9.79
2023-03-22T06:49:07.937Z,9.81
2023-03-22T06:51:37.465Z,9.91
2023-03-22T06:54:05.595Z,9.91
2023-03-22T06:56:33.303Z,9.93
2023-03-22T06:59:01.052Z,9.94
2023-03-22T07:01:28.717Z,9.86
2023-03-22T07:03:56.413Z,9.88
2023-03-22T07:06:24.268Z,9.92
2023-03-22T07:08:53.424Z,9.92
2023-03-22T07:11:21.274Z,9.81
2023-03-22T07:13:49.091Z,9.87
2023-03-22T07:16:19.365Z,9.86
2023-03-22T07:18:48.232Z,9.91
2023-03-22T07:21:16.237Z,9.84
2023-03-22T07:23:43.979Z,9.87
2023-03-22T07:26:13.819Z,9.94
2023-03-22T07:28:44.465Z,10.01
2023-03-22T07:31:14.104Z,10.06
2023-03-22T07:33:42.264Z,10.20
2023-03-22T07:36:11.563Z,10.33
2023-03-22T07:38:39.293Z,10.40
2023-03-22T07:41:07.645Z,10.35
2023-03-22T07:43:50.852Z,10.34
2023-03-22T07:46:21.100Z,10.23
2023-03-22T07:48:49.492Z,10.36
2023-03-22T07:51:17.150Z,10.34
2023-03-22T07:53:44.887Z,10.43
2023-03-22T07:56:12.576Z,10.38
2023-03-22T07:58:41.696Z,10.45
2023-03-22T08:01:10.839Z,10.36
2023-03-22T08:03:39.105Z,10.51
2023-03-22T08:06:08.507Z,10.41
2023-03-22T08:08:37.799Z,10.45
2023-03-22T08:11:05.685Z,10.50
2023-03-22T08:13:33.523Z,10.51
2023-03-22T08:16:02.610Z,10.52
2023-03-22T08:18:30.527Z,10.58
2023-03-22T08:20:59.824Z,10.48
2023-03-22T08:23:40.931Z,10.59
2023-03-22T08:26:09.702Z,10.61
2023-03-22T08:28:37.554Z,10.54
2023-03-22T08:31:14.721Z,10.58
2023-03-22T08:33:43.565Z,10.56
2023-03-22T08:36:13.992Z,10.66
2023-03-22T08:38:42.338Z,10.60
2023-03-22T08:41:10.696Z,10.56
2023-03-22T08:43:38.497Z,10.58
2023-03-22T08:46:06.799Z,10.57
2023-03-22T08:48:37.929Z,10.64
2023-03-22T08:51:06.756Z,10.52
2023-03-22T08:53:34.640Z,10.50
2023-03-22T08:56:03.686Z,10.45
2023-03-22T08:58:31.525Z,10.44
2023-03-22T09:00:59.343Z,10.30
2023-03-22T09:03:27.043Z,10.24
2023-03-22T09:05:56.250Z,10.21
2023-03-22T09:08:24.016Z,10.13
2023-03-22T09:10:52.225Z,10.04
2023-03-22T09:13:20.425Z,9.97
2023-03-22T09:15:48.822Z,9.98
2023-03-22T09:18:17.233Z,9.84
2023-03-22T09:20:46.018Z,9.92
2023-03-22T09:23:15.448Z,9.93
2023-03-22T09:25:44.162Z,9.86
2023-03-22T09:28:12.039Z,9.87
2023-03-22T09:30:40.421Z,9.87
2023-03-22T09:33:08.370Z,9.88
2023-03-22T09:35:36.278Z,9.77
2023-03-22T09:38:05.989Z,9.71
2023-03-22T09:40:38.480Z,9.66
2023-03-22T09:43:09.580Z,9.53
2023-03-22T09:45:41.214Z,9.56
2023-03-22T09:48:16.733Z,9.54
2023-03-22T09:50:47.702Z,9.57
2023-03-22T09:53:17.234Z,9.53
2023-03-22T09:55:51.397Z,9.59
2023-03-22T09:58:25.872Z,9.60
2023-03-22T10:00:58.834Z,9.55
2023-03-22T10:03:46.891Z,9.54
2023-03-22T10:06:18.893Z,9.54
2023-03-22T10:09:00.587Z,9.54
2023-03-22T10:11:41.044Z,9.57
2023-03-22T10:14:25.350Z,9.59
2023-03-22T10:16:56.672Z,9.60
2023-03-22T10:19:29.283Z,9.60
2023-03-22T10:22:00.121Z,9.65
2023-03-22T10:24:31.059Z,9.68
2023-03-22T10:27:00.227Z,9.60
2023-03-22T10:29:33.103Z,9.60
2023-03-22T10:32:13.964Z,9.60
2023-03-22T10:34:41.677Z,9.61
2023-03-22T10:37:15.441Z,9.66
2023-03-22T10:39:46.340Z,9.58
2023-03-22T10:42:19.126Z,9.59
2023-03-22T10:44:51.396Z,9.60
2023-03-22T10:47:22.982Z,9.61
2023-03-22T10:49:55.898Z,9.66
2023-03-22T10:52:34.624Z,9.71
2023-03-22T10:55:04.440Z,9.74
2023-03-22T10:57:34.366Z,9.69
2023-03-22T11:00:08.128Z,9.89
2023-03-22T11:02:35.993Z,9.86
2023-03-22T11:05:07.128Z,9.95
2023-03-22T11:07:36.690Z,10.02
2023-03-22T11:10:22.163Z,9.93
2023-03-22T11:12:54.067Z,9.89
2023-03-22T11:15:26.601Z,9.92
2023-03-22T11:18:00.086Z,10.02
2023-03-22T11:20:29.928Z,10.04
2023-03-22T11:23:02.604Z,10.00
2023-03-22T11:25:32.533Z,10.03
2023-03-22T11:28:16.415Z,10.16
2023-03-22T11:30:59.899Z,10.20
2023-03-22T11:33:27.858Z,10.19
2023-03-22T11:35:57.217Z,10.17
2023-03-22T11:38:31.152Z,10.22
2023-03-22T11:41:03.243Z,10.26
2023-03-22T11:43:37.015Z,10.16
2023-03-22T11:46:06.341Z,10.17
2023-03-22T11:48:35.104Z,10.22
2023-03-22T11:51:09.491Z,10.14
2023-03-22T11:53:40.525Z,10.08
2023-03-22T11:56:12.135Z,10.25
2023-03-22T11:58:59.626Z,10.24
2023-03-22T12:01:41.896Z,10.22
2023-03-22T12:04:15.054Z,10.23
2023-03-22T12:06:44.088Z,10.28
2023-03-22T12:09:23.163Z,10.30
2023-03-22T12:11:54.171Z,10.29
2023-03-22T12:14:27.737Z,10.36
2023-03-22T12:17:00.852Z,10.36
2023-03-22T12:19:41.287Z,10.26
2023-03-22T12:22:13.073Z,10.30
2023-03-22T12:24:42.799Z,10.32
2023-03-22T12:27:18.613Z,10.31
2023-03-22T12:29:53.106Z,10.47
2023-03-22T12:32:25.451Z,10.37
2023-03-22T12:35:01.331Z,10.44
2023-03-22T12:37:38.865Z,10.39
2023-03-22T12:40:16.581Z,10.37
2023-03-22T12:42:53.269Z,10.38
2023-03-22T12:45:27.862Z,10.36
2023-03-22T12:48:01.400Z,10.41
2023-03-22T12:50:35.220Z,10.50
2023-03-22T12:53:04.456Z,10.54
2023-03-22T12:55:35.641Z,10.66
2023-03-22T12:58:06.134Z,10.48
2023-03-22T13:00:41.673Z,10.59
2023-03-22T13:03:24.089Z,10.55
2023-03-22T13:06:01.893Z,10.57
2023-03-22T13:09:13.168Z,10.61
2023-03-22T13:11:41.080Z,10.55
2023-03-22T13:14:08.929Z,10.48
2023-03-22T13:16:53.273Z,10.59
2023-03-22T13:19:31.469Z,10.52
2023-03-22T13:22:21.127Z,10.57
2023-03-22T13:25:07.229Z,10.63
2023-03-22T13:27:37.856Z,10.66
2023-03-22T13:30:15.252Z,10.82
2023-03-22T13:32:54.614Z,10.77
2023-03-22T13:35:27.845Z,10.82
2023-03-22T13:38:02.792Z,10.85
2023-03-22T13:40:36.150Z,10.93
2023-03-22T13:43:22.379Z,10.91
2023-03-22T13:46:28.794Z,10.92
2023-03-22T13:49:38.872Z,11.00
2023-03-22T13:52:09.415Z,11.00
2023-03-22T13:54:42.411Z,11.01
2023-03-22T13:57:38.575Z,11.02
2023-03-22T14:00:20.453Z,11.06
2023-03-22T14:02:51.300Z,11.03
2023-03-22T14:05:24.144Z,11.07
2023-03-22T14:07:54.481Z,10.98
2023-03-22T14:10:26.058Z,11.10
2023-03-22T14:12:56.681Z,11.11
2023-03-22T14:15:26.573Z,11.18
2023-03-22T14:18:00.643Z,11.14
2023-03-22T14:20:34.728Z,11.19
